Time,TemperatureF,DewpointF,PressureIn,WindDirection,WindDirectionDegrees,WindSpeedMPH,WindSpeedGustMPH,Humidity,HourlyPrecipIn,Conditions,Clouds,dailyrainin,SoftwareType,DateUTC
2013-02-18 00:01:00,38.5,34.4,29.90,SE,124,4.0,4.9,85,0.00,,CLR,0.00,VWS V14.01,2013-02-18 08:01:00,
2013-02-18 00:06:00,38.1,34.0,29.90,SE,125,3.6,4.5,85,0.00,,CLR,0.00,VWS V14.01,2013-02-18 08:06:00,
2013-02-18 00:11:00,38.7,34.8,29.90,SE,124,3.1,4.0,86,0.00,,CLR,0.00,VWS V14.01,2013-02-18 08:11:00,
2013-02-18 00:16:00,37.4,33.6,29.90,SE,125,4.0,4.0,86,0.00,,CLR,0.00,VWS V14.01,2013-02-18 08:16:00,
2013-02-18 00:21:00,37.2,32.8,29.90,SE,125,4.0,4.9,84,0.00,,CLR,0.00,VWS V14.01,2013-02-18 08:21:00,
2013-02-18 00:26:00,37.8,34.0,29.90,SE,124,3.6,4.0,86,0.00,,CLR,0.00,VWS V14.01,2013-02-18 08:26:00,
2013-02-18 00:31:00,37.9,34.1,29.90,SE,124,3.1,3.6,86,0.00,,CLR,0.00,VWS V14.01,2013-02-18 08:31:00,
2013-02-18 00:36:00,38.1,34.6,29.90,SE,124,3.1,3.6,87,0.00,,CLR,0.00,VWS V14.01,2013-02-18 08:36:00,
2013-02-18 00:41:00,37.6,34.1,29.90,SE,124,4.5,4.5,87,0.00,,CLR,0.00,VWS V14.01,2013-02-18 08:41:00,
2013-02-18 00:46:00,37.9,34.4,29.90,SE,124,4.5,5.4,87,0.00,,CLR,0.00,VWS V14.01,2013-02-18 08:46:00,
2013-02-18 00:51:00,37.4,33.9,29.90,SE,125,4.0,4.0,87,0.00,,CLR,0.00,VWS V14.01,2013-02-18 08:51:00,
2013-02-18 00:56:00,37.8,34.5,29.90,SE,124,4.9,4.9,88,0.00,,CLR,0.00,VWS V14.01,2013-02-18 08:56:00,
2013-02-18 01:01:00,37.8,34.8,29.90,SE,125,3.6,4.9,89,0.00,,CLR,0.00,VWS V14.01,2013-02-18 09:01:00,
2013-02-18 01:07:00,37.4,34.2,29.90,SE,125,4.5,4.5,88,0.00,,CLR,0.00,VWS V14.01,2013-02-18 09:07:00,
2013-02-18 01:12:00,37.8,34.8,29.90,SE,125,3.6,4.5,89,0.00,,CLR,0.00,VWS V14.01,2013-02-18 09:12:00,
2013-02-18 01:17:00,37.8,35.1,29.90,SE,124,3.6,4.0,90,0.00,,CLR,0.00,VWS V14.01,2013-02-18 09:17:00,
2013-02-18 01:22:00,37.6,34.9,29.90,SE,124,4.0,4.5,90,0.00,,CLR,0.00,VWS V14.01,2013-02-18 09:22:00,
2013-02-18 01:27:00,37.2,34.6,29.90,SE,125,4.5,4.9,90,0.00,,CLR,0.00,VWS V14.01,2013-02-18 09:27:00,
2013-02-18 01:32:00,36.3,33.1,29.90,SE,125,4.0,4.5,88,0.00,,CLR,0.00,VWS V14.01,2013-02-18 09:32:00,
2013-02-18 01:37:00,36.9,33.7,29.90,SE,125,3.6,4.5,88,0.00,,CLR,0.00,VWS V14.01,2013-02-18 09:37:00,
2013-02-18 01:42:00,37.4,34.7,29.90,SE,124,3.6,4.9,90,0.00,,CLR,0.00,VWS V14.01,2013-02-18 09:42:00,
2013-02-18 01:47:00,37.2,34.8,29.90,SE,125,4.0,4.9,91,0.00,,CLR,0.00,VWS V14.01,2013-02-18 09:47:00,
2013-02-18 01:52:00,37.6,35.2,29.90,SE,125,4.0,4.9,91,0.00,,CLR,0.00,VWS V14.01,2013-02-18 09:52:00,
2013-02-18 01:57:00,37.0,34.7,29.90,SE,126,4.0,4.5,91,0.00,,CLR,0.00,VWS V14.01,2013-02-18 09:57:00,
2013-02-18 02:02:00,36.9,34.2,29.90,SE,125,3.6,4.9,90,0.00,,CLR,0.00,VWS V14.01,2013-02-18 10:02:00,
2013-02-18 02:07:00,37.0,34.4,29.90,SE,125,4.0,4.5,90,0.00,,CLR,0.00,VWS V14.01,2013-02-18 10:07:00,
2013-02-18 02:13:00,37.4,35.3,29.90,SE,125,3.6,4.5,92,0.00,,CLR,0.00,VWS V14.01,2013-02-18 10:13:00,
2013-02-18 02:18:00,37.2,35.1,29.90,SE,125,3.1,4.0,92,0.00,,CLR,0.00,VWS V14.01,2013-02-18 10:18:00,
2013-02-18 02:23:00,36.5,33.8,29.90,SE,126,4.5,4.5,90,0.00,,CLR,0.00,VWS V14.01,2013-02-18 10:23:00,
2013-02-18 02:28:00,36.5,33.8,29.90,SE,125,4.0,4.0,90,0.00,,CLR,0.00,VWS V14.01,2013-02-18 10:28:00,
2013-02-18 02:33:00,36.7,34.0,29.90,SE,126,3.1,3.6,90,0.00,,CLR,0.00,VWS V14.01,2013-02-18 10:33:00,
2013-02-18 02:38:00,35.8,33.1,29.90,SE,125,4.5,4.5,90,0.00,,CLR,0.00,VWS V14.01,2013-02-18 10:38:00,
2013-02-18 02:43:00,35.8,32.9,29.90,SE,126,4.9,5.8,89,0.00,,CLR,0.00,VWS V14.01,2013-02-18 10:43:00,
2013-02-18 02:48:00,36.1,33.5,29.90,SE,126,4.5,4.5,90,0.00,,CLR,0.00,VWS V14.01,2013-02-18 10:48:00,
2013-02-18 02:53:00,36.0,33.6,29.90,SE,127,4.0,4.5,91,0.00,,CLR,0.00,VWS V14.01,2013-02-18 10:53:00,
2013-02-18 02:59:00,36.9,34.8,29.90,ESE,116,4.0,4.9,92,0.00,,CLR,0.00,VWS V14.01,2013-02-18 10:59:00,
2013-02-18 03:04:00,36.7,34.8,29.90,ESE,116,4.0,4.9,93,0.00,,CLR,0.00,VWS V14.01,2013-02-18 11:04:00,
2013-02-18 03:09:00,36.3,34.5,29.90,ESE,115,3.6,4.5,93,0.00,,CLR,0.00,VWS V14.01,2013-02-18 11:09:00,
2013-02-18 03:14:00,36.0,33.9,29.90,ESE,115,3.1,4.9,92,0.00,,CLR,0.00,VWS V14.01,2013-02-18 11:14:00,
2013-02-18 03:20:00,35.6,33.2,29.90,ESE,115,3.1,4.5,91,0.00,,CLR,0.00,VWS V14.01,2013-02-18 11:20:00,
2013-02-18 03:25:00,35.6,33.2,29.90,ESE,115,3.1,3.6,91,0.00,,CLR,0.00,VWS V14.01,2013-02-18 11:25:00,
2013-02-18 03:30:00,35.4,32.8,29.90,ESE,115,0.0,3.1,90,0.00,,CLR,0.00,VWS V14.01,2013-02-18 11:30:00,
2013-02-18 03:35:00,35.1,32.4,29.90,ESE,116,0.0,0.0,90,0.00,,CLR,0.00,VWS V14.01,2013-02-18 11:35:00,
2013-02-18 03:40:00,35.1,32.4,29.90,ESE,115,0.0,0.0,90,0.00,,CLR,0.00,VWS V14.01,2013-02-18 11:40:00,
2013-02-18 03:45:00,35.1,32.4,29.87,ESE,115,0.0,0.0,90,0.00,,CLR,0.00,VWS V14.01,2013-02-18 11:45:00,
2013-02-18 03:50:00,34.5,31.6,29.87,ESE,115,3.6,4.5,89,0.00,,CLR,0.00,VWS V14.01,2013-02-18 11:50:00,
2013-02-18 03:56:00,34.9,32.0,29.87,ESE,116,0.0,0.0,89,0.00,,CLR,0.00,VWS V14.01,2013-02-18 11:56:00,
2013-02-18 04:01:00,34.9,32.0,29.87,ESE,115,3.6,4.0,89,0.00,,CLR,0.00,VWS V14.01,2013-02-18 12:01:00,
2013-02-18 04:06:00,35.1,32.7,29.87,ESE,115,0.0,4.5,91,0.00,,CLR,0.00,VWS V14.01,2013-02-18 12:06:00,
2013-02-18 04:11:00,34.9,32.5,29.87,ESE,115,0.0,0.0,91,0.00,,CLR,0.00,VWS V14.01,2013-02-18 12:11:00,
2013-02-18 04:16:00,34.5,32.2,29.87,ESE,115,3.1,3.6,91,0.00,,CLR,0.00,VWS V14.01,2013-02-18 12:16:00,
2013-02-18 04:22:00,34.9,32.5,29.87,ESE,115,3.1,3.1,91,0.00,,CLR,0.00,VWS V14.01,2013-02-18 12:22:00,
2013-02-18 04:27:00,34.9,32.5,29.87,ESE,115,0.0,3.1,91,0.00,,CLR,0.00,VWS V14.01,2013-02-18 12:27:00,
2013-02-18 04:32:00,35.1,33.0,29.87,ESE,115,2.7,2.7,92,0.00,,CLR,0.00,VWS V14.01,2013-02-18 12:32:00,
2013-02-18 04:37:00,35.1,33.0,29.87,ESE,116,3.6,3.6,92,0.00,,CLR,0.00,VWS V14.01,2013-02-18 12:37:00,
2013-02-18 04:42:00,34.9,32.8,29.87,ESE,116,3.1,3.1,92,0.00,,CLR,0.00,VWS V14.01,2013-02-18 12:42:00,
2013-02-18 04:47:00,35.2,33.2,29.87,ESE,116,0.0,2.7,92,0.00,,CLR,0.00,VWS V14.01,2013-02-18 12:47:00,
2013-02-18 04:52:00,35.1,33.0,29.87,ESE,116,0.0,0.0,92,0.00,,CLR,0.00,VWS V14.01,2013-02-18 12:52:00,
2013-02-18 04:57:00,34.9,32.8,29.87,ESE,115,0.0,0.0,92,0.00,,CLR,0.00,VWS V14.01,2013-02-18 12:57:00,
2013-02-18 05:02:00,35.1,33.0,29.87,ESE,115,0.0,0.0,92,0.00,,CLR,0.00,VWS V14.01,2013-02-18 13:02:00,
2013-02-18 05:07:00,34.5,32.4,29.87,ESE,115,4.0,4.9,92,0.00,,CLR,0.00,VWS V14.01,2013-02-18 13:07:00,
2013-02-18 05:12:00,34.9,32.5,29.87,ESE,115,3.6,4.0,91,0.00,,CLR,0.00,VWS V14.01,2013-02-18 13:12:00,
2013-02-18 05:17:00,35.1,33.0,29.87,ESE,116,3.1,3.6,92,0.00,,CLR,0.00,VWS V14.01,2013-02-18 13:17:00,
2013-02-18 05:22:00,35.4,33.6,29.87,ESE,115,3.6,3.6,93,0.00,,CLR,0.00,VWS V14.01,2013-02-18 13:22:00,
2013-02-18 05:28:00,35.4,33.6,29.87,ESE,116,3.6,4.0,93,0.00,,CLR,0.00,VWS V14.01,2013-02-18 13:28:00,
2013-02-18 05:33:00,35.4,33.6,29.87,ESE,115,3.6,4.0,93,0.00,,CLR,0.00,VWS V14.01,2013-02-18 13:33:00,
2013-02-18 05:38:00,35.4,33.9,29.87,ESE,115,3.6,3.6,94,0.00,,CLR,0.00,VWS V14.01,2013-02-18 13:38:00,
2013-02-18 05:43:00,35.6,34.0,29.87,ESE,115,4.0,4.0,94,0.00,,CLR,0.00,VWS V14.01,2013-02-18 13:43:00,
2013-02-18 05:48:00,34.9,33.3,29.87,ESE,115,3.1,4.0,94,0.00,,CLR,0.00,VWS V14.01,2013-02-18 13:48:00,
2013-02-18 05:53:00,35.2,33.7,29.87,ESE,116,0.0,2.7,94,0.00,,CLR,0.00,VWS V14.01,2013-02-18 13:53:00,
2013-02-18 05:58:00,35.8,34.2,29.87,ESE,116,0.0,0.0,94,0.00,,CLR,0.00,VWS V14.01,2013-02-18 13:58:00,
2013-02-18 06:03:00,34.9,33.3,29.87,ESE,115,0.0,0.0,94,0.00,,CLR,0.00,VWS V14.01,2013-02-18 14:03:00,
2013-02-18 06:08:00,34.3,32.5,29.87,ESE,115,3.6,4.0,93,0.00,,CLR,0.00,VWS V14.01,2013-02-18 14:08:00,
2013-02-18 06:13:00,34.3,32.5,29.87,ESE,115,4.0,4.5,93,0.00,,CLR,0.00,VWS V14.01,2013-02-18 14:13:00,
2013-02-18 06:18:00,34.5,32.7,29.87,ESE,115,3.6,4.0,93,0.00,,CLR,0.00,VWS V14.01,2013-02-18 14:18:00,
2013-02-18 06:23:00,35.4,33.9,29.87,ESE,115,4.0,4.5,94,0.00,,CLR,0.00,VWS V14.01,2013-02-18 14:23:00,
2013-02-18 06:28:00,35.4,34.1,29.87,ESE,116,3.6,4.0,95,0.00,,CLR,0.00,VWS V14.01,2013-02-18 14:28:00,
2013-02-18 06:34:00,35.6,34.3,29.87,ESE,115,4.0,4.0,95,0.00,,CLR,0.00,VWS V14.01,2013-02-18 14:34:00,
2013-02-18 06:39:00,35.8,34.5,29.87,ESE,115,0.0,3.1,95,0.00,,CLR,0.00,VWS V14.01,2013-02-18 14:39:00,
2013-02-18 06:44:00,35.2,34.0,29.87,ESE,115,3.1,3.6,95,0.00,,CLR,0.00,VWS V14.01,2013-02-18 14:44:00,
2013-02-18 06:49:00,34.7,33.4,29.90,ESE,115,3.1,3.6,95,0.00,,CLR,0.00,VWS V14.01,2013-02-18 14:49:00,
2013-02-18 06:54:00,35.2,33.7,29.90,ESE,115,3.1,4.0,94,0.00,,CLR,0.00,VWS V14.01,2013-02-18 14:54:00,
2013-02-18 06:59:00,35.4,34.1,29.90,ESE,115,4.0,4.0,95,0.00,,CLR,0.00,VWS V14.01,2013-02-18 14:59:00,
2013-02-18 07:04:00,35.2,34.0,29.90,ESE,116,3.1,3.6,95,0.00,,CLR,0.00,VWS V14.01,2013-02-18 15:04:00,
2013-02-18 07:09:00,35.6,34.3,29.90,ESE,115,3.1,3.6,95,0.00,,CLR,0.00,VWS V14.01,2013-02-18 15:09:00,
2013-02-18 07:14:00,35.4,34.1,29.90,ESE,115,4.9,5.4,95,0.00,,CLR,0.00,VWS V14.01,2013-02-18 15:14:00,
2013-02-18 07:19:00,35.6,34.3,29.90,ESE,118,5.4,5.4,95,0.00,,CLR,0.00,VWS V14.01,2013-02-18 15:19:00,
2013-02-18 07:24:00,35.8,34.5,29.90,ESE,117,3.6,4.5,95,0.00,,CLR,0.00,VWS V14.01,2013-02-18 15:24:00,
2013-02-18 07:29:00,36.5,35.2,29.90,ESE,118,3.1,3.6,95,0.00,,CLR,0.00,VWS V14.01,2013-02-18 15:29:00,
2013-02-18 07:34:00,37.4,36.4,29.90,ESE,118,0.0,0.0,96,0.00,,CLR,0.00,VWS V14.01,2013-02-18 15:34:00,
2013-02-18 07:40:00,38.1,37.3,29.90,ESE,118,0.0,0.0,97,0.00,,CLR,0.00,VWS V14.01,2013-02-18 15:40:00,
2013-02-18 07:45:00,38.8,38.1,29.90,ESE,118,0.0,0.0,97,0.00,,CLR,0.00,VWS V14.01,2013-02-18 15:45:00,
2013-02-18 07:50:00,39.2,38.4,29.90,ESE,118,3.6,3.6,97,0.00,,CLR,0.00,VWS V14.01,2013-02-18 15:50:00,
2013-02-18 07:55:00,39.4,38.3,29.90,ESE,118,4.0,4.0,96,0.00,,CLR,0.00,VWS V14.01,2013-02-18 15:55:00,
2013-02-18 08:00:00,39.6,38.5,29.90,ESE,118,0.0,0.0,96,0.00,,CLR,0.00,VWS V14.01,2013-02-18 16:00:00,
2013-02-18 08:05:00,40.1,39.0,29.90,ESE,118,0.0,0.0,96,0.00,,CLR,0.00,VWS V14.01,2013-02-18 16:05:00,
2013-02-18 08:11:00,41.0,39.7,29.90,ESE,117,0.0,0.0,95,0.00,,CLR,0.00,VWS V14.01,2013-02-18 16:11:00,
2013-02-18 08:16:00,41.7,40.4,29.90,ESE,118,0.0,0.0,95,0.00,,CLR,0.00,VWS V14.01,2013-02-18 16:16:00,
2013-02-18 08:21:00,42.3,40.9,29.90,ESE,117,2.7,3.1,95,0.00,,CLR,0.00,VWS V14.01,2013-02-18 16:21:00,
2013-02-18 08:26:00,42.8,41.5,29.90,ESE,118,0.0,0.0,95,0.00,,CLR,0.00,VWS V14.01,2013-02-18 16:26:00,
2013-02-18 08:31:00,43.7,42.4,29.90,ESE,118,0.0,0.0,95,0.00,,CLR,0.00,VWS V14.01,2013-02-18 16:31:00,
2013-02-18 08:36:00,44.6,43.3,29.90,ESE,117,0.0,0.0,95,0.00,,CLR,0.00,VWS V14.01,2013-02-18 16:36:00,
2013-02-18 08:42:00,45.3,44.0,29.90,ESE,117,0.0,0.0,95,0.00,,CLR,0.00,VWS V14.01,2013-02-18 16:42:00,
2013-02-18 08:47:00,45.9,44.5,29.90,ESE,110,0.0,2.7,95,0.00,,CLR,0.00,VWS V14.01,2013-02-18 16:47:00,
2013-02-18 08:52:00,46.6,45.2,29.90,ESE,109,3.1,4.5,95,0.00,,CLR,0.00,VWS V14.01,2013-02-18 16:52:00,
2013-02-18 08:57:00,47.1,45.8,29.90,WNW,284,7.4,7.8,95,0.00,,CLR,0.00,VWS V14.01,2013-02-18 16:57:00,
2013-02-18 09:02:00,48.0,46.4,29.90,WNW,284,6.3,7.4,94,0.00,,CLR,0.00,VWS V14.01,2013-02-18 17:02:00,
2013-02-18 09:07:00,48.4,46.5,29.90,WNW,287,4.0,6.3,93,0.00,,CLR,0.00,VWS V14.01,2013-02-18 17:07:00,
2013-02-18 09:12:00,48.7,46.8,29.90,West,269,2.7,4.5,93,0.00,,CLR,0.00,VWS V14.01,2013-02-18 17:12:00,
2013-02-18 09:18:00,48.0,44.9,29.90,NW,318,4.9,5.4,89,0.00,,CLR,0.00,VWS V14.01,2013-02-18 17:18:00,
2013-02-18 09:23:00,48.4,40.1,29.90,WNW,300,6.3,6.3,73,0.00,,CLR,0.00,VWS V14.01,2013-02-18 17:23:00,
2013-02-18 09:29:00,49.1,40.1,29.90,WNW,295,4.0,5.4,71,0.00,,CLR,0.00,VWS V14.01,2013-02-18 17:29:00,
2013-02-18 09:34:00,49.5,38.6,29.90,WSW,254,6.9,7.4,66,0.00,,CLR,0.00,VWS V14.01,2013-02-18 17:34:00,
2013-02-18 09:40:00,50.2,38.1,29.90,West,276,7.4,8.3,63,0.00,,CLR,0.00,VWS V14.01,2013-02-18 17:40:00,
2013-02-18 09:45:00,50.7,36.9,29.93,SW,235,7.8,8.3,59,0.00,,CLR,0.00,VWS V14.01,2013-02-18 17:45:00,
2013-02-18 09:50:00,51.1,36.0,29.93,SSW,204,4.5,4.9,56,0.00,,CLR,0.00,VWS V14.01,2013-02-18 17:50:00,
2013-02-18 09:55:00,51.4,35.8,29.93,SW,234,2.7,4.0,55,0.00,,CLR,0.00,VWS V14.01,2013-02-18 17:55:00,
2013-02-18 10:00:00,52.0,35.9,29.90,South,190,4.9,6.7,54,0.00,,CLR,0.00,VWS V14.01,2013-02-18 18:00:00,
2013-02-18 10:06:00,53.1,36.4,29.90,SW,216,4.9,6.7,53,0.00,,CLR,0.00,VWS V14.01,2013-02-18 18:06:00,
2013-02-18 10:11:00,53.4,36.2,29.90,WSW,252,6.7,7.8,52,0.00,,CLR,0.00,VWS V14.01,2013-02-18 18:11:00,
2013-02-18 10:16:00,53.8,36.1,29.93,West,266,6.7,10.1,51,0.00,,CLR,0.00,VWS V14.01,2013-02-18 18:16:00,
2013-02-18 10:21:00,54.0,36.3,29.93,SW,224,7.4,9.6,51,0.00,,CLR,0.00,VWS V14.01,2013-02-18 18:21:00,
2013-02-18 10:26:00,54.0,35.8,29.93,West,281,9.6,9.6,50,0.00,,CLR,0.00,VWS V14.01,2013-02-18 18:26:00,
2013-02-18 10:32:00,54.3,35.6,29.90,SW,228,8.3,8.3,49,0.00,,CLR,0.00,VWS V14.01,2013-02-18 18:32:00,
2013-02-18 10:37:00,54.3,35.6,29.90,South,185,3.1,6.9,49,0.00,,CLR,0.00,VWS V14.01,2013-02-18 18:37:00,
2013-02-18 10:42:00,54.7,34.9,29.90,SW,218,5.8,8.3,47,0.00,,CLR,0.00,VWS V14.01,2013-02-18 18:42:00,
2013-02-18 10:47:00,55.0,34.1,29.90,South,185,4.5,6.3,45,0.00,,CLR,0.00,VWS V14.01,2013-02-18 18:47:00,
2013-02-18 10:52:00,55.6,34.6,29.90,SW,228,8.7,10.5,45,0.00,,CLR,0.00,VWS V14.01,2013-02-18 18:52:00,
2013-02-18 10:57:00,55.4,33.3,29.90,SW,229,9.2,9.2,43,0.00,,CLR,0.00,VWS V14.01,2013-02-18 18:57:00,
2013-02-18 11:03:00,55.0,33.5,29.90,SSW,203,4.9,5.4,44,0.00,,CLR,0.00,VWS V14.01,2013-02-18 19:03:00,
2013-02-18 11:08:00,55.6,33.5,29.90,SSW,197,6.7,7.8,43,0.00,,CLR,0.00,VWS V14.01,2013-02-18 19:08:00,
2013-02-18 11:13:00,55.8,33.6,29.90,SSE,147,3.6,6.3,43,0.00,,CLR,0.00,VWS V14.01,2013-02-18 19:13:00,
2013-02-18 11:18:00,55.9,34.9,29.90,SSE,149,5.4,6.3,45,0.00,,CLR,0.00,VWS V14.01,2013-02-18 19:18:00,
2013-02-18 11:23:00,56.3,34.1,29.90,WSW,240,4.9,8.3,43,0.00,,CLR,0.00,VWS V14.01,2013-02-18 19:23:00,
2013-02-18 11:28:00,56.8,32.8,29.90,WSW,237,6.7,9.2,40,0.00,,CLR,0.00,VWS V14.01,2013-02-18 19:28:00,
2013-02-18 11:33:00,57.2,32.5,29.90,SW,226,6.9,9.2,39,0.00,,CLR,0.00,VWS V14.01,2013-02-18 19:33:00,
2013-02-18 11:38:00,57.6,32.8,29.90,SSW,192,5.4,8.3,39,0.00,,CLR,0.00,VWS V14.01,2013-02-18 19:38:00,
2013-02-18 11:44:00,57.4,32.0,29.90,SW,236,8.3,10.5,38,0.00,,CLR,0.00,VWS V14.01,2013-02-18 19:44:00,
2013-02-18 11:49:00,57.2,31.8,29.90,WSW,257,9.2,9.2,38,0.00,,CLR,0.00,VWS V14.01,2013-02-18 19:49:00,
2013-02-18 11:54:00,57.7,33.6,29.90,WSW,248,6.7,10.1,40,0.00,,CLR,0.00,VWS V14.01,2013-02-18 19:54:00,
2013-02-18 11:59:00,58.3,34.1,29.90,SSW,209,6.3,8.7,40,0.00,,CLR,0.00,VWS V14.01,2013-02-18 19:59:00,
2013-02-18 12:04:00,57.9,33.8,29.90,SW,229,10.5,11.6,40,0.00,,CLR,0.00,VWS V14.01,2013-02-18 20:04:00,
2013-02-18 12:09:00,57.6,33.4,29.90,WSW,239,9.2,11.0,40,0.00,,CLR,0.00,VWS V14.01,2013-02-18 20:09:00,
2013-02-18 12:14:00,57.6,33.4,29.87,WSW,252,11.2,12.1,40,0.00,,CLR,0.00,VWS V14.01,2013-02-18 20:14:00,
2013-02-18 12:19:00,57.9,33.8,29.87,SW,217,6.7,6.9,40,0.00,,CLR,0.00,VWS V14.01,2013-02-18 20:19:00,
2013-02-18 12:24:00,58.1,33.3,29.87,SW,233,5.4,7.8,39,0.00,,CLR,0.00,VWS V14.01,2013-02-18 20:24:00,
2013-02-18 12:29:00,58.1,33.3,29.87,WSW,245,6.9,8.7,39,0.00,,CLR,0.00,VWS V14.01,2013-02-18 20:29:00,
2013-02-18 12:34:00,58.1,33.3,29.87,SW,222,9.6,9.6,39,0.00,,CLR,0.00,VWS V14.01,2013-02-18 20:34:00,
2013-02-18 12:40:00,58.6,33.8,29.87,SW,236,9.2,9.2,39,0.00,,CLR,0.00,VWS V14.01,2013-02-18 20:40:00,
2013-02-18 12:45:00,58.3,32.8,29.87,SE,138,10.5,13.0,38,0.00,,CLR,0.00,VWS V14.01,2013-02-18 20:45:00,
2013-02-18 12:50:00,58.6,33.8,29.87,SE,139,5.8,9.6,39,0.00,,CLR,0.00,VWS V14.01,2013-02-18 20:50:00,
2013-02-18 12:56:00,58.6,32.5,29.87,SW,235,6.9,10.5,37,0.00,,CLR,0.00,VWS V14.01,2013-02-18 20:56:00,
2013-02-18 13:01:00,58.8,33.9,29.87,SSE,164,4.9,9.2,39,0.00,,CLR,0.00,VWS V14.01,2013-02-18 21:01:00,
2013-02-18 13:06:00,59.5,34.6,29.87,SSE,163,6.7,9.6,39,0.00,,CLR,0.00,VWS V14.01,2013-02-18 21:06:00,
2013-02-18 13:11:00,59.5,34.6,29.87,South,187,6.3,11.0,39,0.00,,CLR,0.00,VWS V14.01,2013-02-18 21:11:00,
2013-02-18 13:16:00,58.6,33.8,29.87,SW,228,7.8,9.6,39,0.00,,CLR,0.00,VWS V14.01,2013-02-18 21:16:00,
2013-02-18 13:21:00,58.1,33.9,29.87,WSW,245,12.5,13.4,40,0.00,,CLR,0.00,VWS V14.01,2013-02-18 21:21:00,
2013-02-18 13:26:00,57.9,36.2,29.87,SW,233,7.4,10.5,44,0.00,,CLR,0.00,VWS V14.01,2013-02-18 21:26:00,
2013-02-18 13:31:00,57.9,35.6,29.87,SW,226,4.0,8.7,43,0.00,,CLR,0.00,VWS V14.01,2013-02-18 21:31:00,
2013-02-18 13:36:00,58.3,36.5,29.87,SSW,210,5.8,10.5,44,0.00,,CLR,0.00,VWS V14.01,2013-02-18 21:36:00,
2013-02-18 13:41:00,57.9,35.6,29.87,South,176,11.0,11.0,43,0.00,,CLR,0.00,VWS V14.01,2013-02-18 21:41:00,
2013-02-18 13:46:00,57.9,36.2,29.84,South,182,6.7,9.6,44,0.00,,CLR,0.00,VWS V14.01,2013-02-18 21:46:00,
2013-02-18 13:51:00,58.1,36.3,29.84,SW,229,6.9,8.3,44,0.00,,CLR,0.00,VWS V14.01,2013-02-18 21:51:00,
2013-02-18 13:57:00,58.1,36.3,29.84,WSW,247,8.7,11.0,44,0.00,,CLR,0.00,VWS V14.01,2013-02-18 21:57:00,
2013-02-18 14:02:00,57.9,36.2,29.84,SSW,200,5.8,6.9,44,0.00,,CLR,0.00,VWS V14.01,2013-02-18 22:02:00,
2013-02-18 14:07:00,57.9,36.2,29.84,SSW,196,8.3,10.1,44,0.00,,CLR,0.00,VWS V14.01,2013-02-18 22:07:00,
2013-02-18 14:13:00,57.9,35.6,29.84,South,180,4.9,9.2,43,0.00,,CLR,0.00,VWS V14.01,2013-02-18 22:13:00,
2013-02-18 14:18:00,57.9,36.2,29.84,SSE,154,4.9,10.5,44,0.00,,CLR,0.00,VWS V14.01,2013-02-18 22:18:00,
2013-02-18 14:23:00,58.5,37.2,29.84,SSW,194,5.4,5.4,45,0.00,,CLR,0.00,VWS V14.01,2013-02-18 22:23:00,
2013-02-18 14:28:00,58.3,35.9,29.84,SSE,147,3.6,10.5,43,0.00,,CLR,0.00,VWS V14.01,2013-02-18 22:28:00,
2013-02-18 14:33:00,58.6,36.2,29.84,SW,214,10.1,10.1,43,0.00,,CLR,0.00,VWS V14.01,2013-02-18 22:33:00,
2013-02-18 14:38:00,58.3,35.9,29.84,South,190,5.8,6.3,43,0.00,,CLR,0.00,VWS V14.01,2013-02-18 22:38:00,
2013-02-18 14:43:00,57.7,35.4,29.84,South,169,6.7,10.1,43,0.00,,CLR,0.00,VWS V14.01,2013-02-18 22:43:00,
2013-02-18 14:48:00,57.4,35.7,29.81,SE,138,12.1,12.1,44,0.00,,CLR,0.00,VWS V14.01,2013-02-18 22:48:00,
2013-02-18 14:54:00,58.3,36.5,29.81,South,186,9.2,10.5,44,0.00,,CLR,0.00,VWS V14.01,2013-02-18 22:54:00,
2013-02-18 15:00:00,58.5,36.1,29.81,SSE,148,4.9,6.3,43,0.00,,CLR,0.00,VWS V14.01,2013-02-18 23:00:00,
2013-02-18 15:06:00,58.5,35.5,29.81,WSW,241,7.4,9.2,42,0.00,,CLR,0.00,VWS V14.01,2013-02-18 23:06:00,
2013-02-18 15:12:00,57.9,35.6,29.81,South,191,8.3,10.1,43,0.00,,CLR,0.00,VWS V14.01,2013-02-18 23:12:00,
2013-02-18 15:17:00,57.9,36.2,29.84,SW,227,11.6,14.8,44,0.00,,CLR,0.00,VWS V14.01,2013-02-18 23:17:00,
2013-02-18 15:22:00,57.0,35.3,29.84,SSW,193,12.1,13.4,44,0.00,,CLR,0.00,VWS V14.01,2013-02-18 23:22:00,
2013-02-18 15:27:00,56.7,36.1,29.84,SSE,162,5.8,9.2,46,0.00,,CLR,0.00,VWS V14.01,2013-02-18 23:27:00,
2013-02-18 15:33:00,56.8,36.3,29.81,SSW,211,6.7,10.1,46,0.00,,CLR,0.00,VWS V14.01,2013-02-18 23:33:00,
2013-02-18 15:38:00,56.7,36.7,29.81,SSW,194,9.2,9.2,47,0.00,,CLR,0.00,VWS V14.01,2013-02-18 23:38:00,
2013-02-18 15:43:00,56.5,36.0,29.81,SW,233,6.3,13.0,46,0.00,,CLR,0.00,VWS V14.01,2013-02-18 23:43:00,
2013-02-18 15:48:00,56.5,36.5,29.81,South,189,6.7,9.6,47,0.00,,CLR,0.00,VWS V14.01,2013-02-18 23:48:00,
2013-02-18 15:53:00,56.3,36.9,29.81,WSW,257,9.2,11.6,48,0.00,,CLR,0.00,VWS V14.01,2013-02-18 23:53:00,
2013-02-18 15:58:00,55.8,36.9,29.81,SW,230,10.1,13.9,49,0.00,,CLR,0.00,VWS V14.01,2013-02-18 23:58:00,
2013-02-18 16:03:00,55.6,36.7,29.81,SW,217,5.8,6.9,49,0.00,,FEW033,0.00,VWS V14.01,2013-02-19 00:03:00,
2013-02-18 16:09:00,54.7,35.9,29.81,SW,221,6.9,12.1,49,0.00,,FEW033,0.00,VWS V14.01,2013-02-19 00:09:00,
2013-02-18 16:14:00,54.3,36.1,29.81,SW,222,6.3,11.0,50,0.00,,FEW033,0.00,VWS V14.01,2013-02-19 00:14:00,
2013-02-18 16:19:00,53.8,35.6,29.81,WSW,238,11.0,14.3,50,0.00,,FEW033,0.00,VWS V14.01,2013-02-19 00:19:00,
2013-02-18 16:24:00,53.4,35.8,29.81,WSW,239,10.1,11.2,51,0.00,,FEW033,0.00,VWS V14.01,2013-02-19 00:24:00,
2013-02-18 16:29:00,53.1,34.9,29.81,SW,233,10.1,13.9,50,0.00,,FEW033,0.00,VWS V14.01,2013-02-19 00:29:00,
2013-02-18 16:34:00,52.3,34.8,29.81,WSW,241,11.2,12.1,51,0.00,,FEW033,0.00,VWS V14.01,2013-02-19 00:34:00,
2013-02-18 16:39:00,52.5,34.9,29.81,WSW,249,8.7,13.4,51,0.00,,FEW033,0.00,VWS V14.01,2013-02-19 00:39:00,
2013-02-18 16:45:00,51.6,33.6,29.81,SW,225,9.2,13.4,50,0.00,,FEW033,0.00,VWS V14.01,2013-02-19 00:45:00,
2013-02-18 16:50:00,51.4,33.9,29.81,SW,232,9.2,13.4,51,0.00,,FEW033,0.00,VWS V14.01,2013-02-19 00:50:00,
2013-02-18 16:55:00,51.1,33.6,29.81,SW,224,6.9,11.6,51,0.00,,FEW033,0.00,VWS V14.01,2013-02-19 00:55:00,
2013-02-18 17:01:00,51.1,34.1,29.81,SW,234,7.4,11.6,52,0.00,,FEW035,0.00,VWS V14.01,2013-02-19 01:01:00,
2013-02-18 17:06:00,50.7,33.8,29.81,SW,233,8.3,9.6,52,0.00,,FEW035,0.00,VWS V14.01,2013-02-19 01:06:00,
2013-02-18 17:11:00,50.0,33.1,29.81,SW,227,11.0,13.9,52,0.00,,FEW035,0.00,VWS V14.01,2013-02-19 01:11:00,
2013-02-18 17:16:00,50.0,33.1,29.84,SW,222,5.4,12.5,52,0.00,,FEW035,0.00,VWS V14.01,2013-02-19 01:16:00,
2013-02-18 17:21:00,50.0,33.1,29.84,SW,234,9.2,13.4,52,0.00,,FEW035,0.00,VWS V14.01,2013-02-19 01:21:00,
2013-02-18 17:26:00,49.8,32.4,29.84,WSW,247,8.3,10.1,51,0.00,,FEW035,0.00,VWS V14.01,2013-02-19 01:26:00,
2013-02-18 17:32:00,49.6,32.8,29.84,SW,233,6.7,9.6,52,0.00,,FEW035,0.00,VWS V14.01,2013-02-19 01:32:00,
2013-02-18 17:38:00,49.6,32.8,29.84,WSW,255,9.6,12.1,52,0.00,,FEW035,0.00,VWS V14.01,2013-02-19 01:38:00,
2013-02-18 17:44:00,49.5,32.6,29.84,SW,228,6.3,6.3,52,0.00,,FEW035,0.00,VWS V14.01,2013-02-19 01:44:00,
2013-02-18 17:49:00,49.3,32.9,29.84,WSW,238,7.8,10.1,53,0.00,,FEW035,0.00,VWS V14.01,2013-02-19 01:49:00,
2013-02-18 17:54:00,49.1,32.2,29.84,SW,222,7.4,7.8,52,0.00,,FEW035,0.00,VWS V14.01,2013-02-19 01:54:00,
2013-02-18 18:00:00,49.1,32.2,29.84,South,188,7.8,10.1,52,0.00,,CLR,0.00,VWS V14.01,2013-02-19 02:00:00,
2013-02-18 18:05:00,49.1,31.8,29.84,SSW,193,5.8,5.8,51,0.00,,CLR,0.00,VWS V14.01,2013-02-19 02:05:00,
2013-02-18 18:11:00,48.9,32.1,29.84,SE,144,5.8,7.4,52,0.00,,CLR,0.00,VWS V14.01,2013-02-19 02:11:00,
2013-02-18 18:17:00,48.7,31.9,29.84,SSW,198,6.3,8.3,52,0.00,,CLR,0.00,VWS V14.01,2013-02-19 02:17:00,
2013-02-18 18:22:00,48.4,32.0,29.84,WSW,237,4.9,11.0,53,0.00,,CLR,0.00,VWS V14.01,2013-02-19 02:22:00,
2013-02-18 18:28:00,48.4,33.0,29.84,South,174,3.6,5.4,55,0.00,,CLR,0.00,VWS V14.01,2013-02-19 02:28:00,
2013-02-18 18:34:00,48.6,32.7,29.84,South,183,5.4,6.3,54,0.00,,CLR,0.00,VWS V14.01,2013-02-19 02:34:00,
2013-02-18 18:40:00,48.6,33.1,29.84,SSW,205,5.8,7.4,55,0.00,,CLR,0.00,VWS V14.01,2013-02-19 02:40:00,
2013-02-18 18:45:00,48.6,32.7,29.84,SE,142,6.3,7.4,54,0.00,,CLR,0.00,VWS V14.01,2013-02-19 02:45:00,
2013-02-18 18:50:00,48.2,32.3,29.84,SE,144,7.4,8.7,54,0.00,,CLR,0.00,VWS V14.01,2013-02-19 02:50:00,
2013-02-18 18:55:00,48.0,32.2,29.84,SSE,161,6.7,6.7,54,0.00,,CLR,0.00,VWS V14.01,2013-02-19 02:55:00,
2013-02-18 19:00:00,48.0,32.2,29.87,SSE,164,4.9,9.6,54,0.00,,CLR,0.00,VWS V14.01,2013-02-19 03:00:00,
2013-02-18 19:05:00,48.0,32.6,29.87,ESE,123,6.3,7.8,55,0.00,,CLR,0.00,VWS V14.01,2013-02-19 03:05:00,
2013-02-18 19:10:00,48.2,32.3,29.87,SSE,168,6.3,9.2,54,0.00,,CLR,0.00,VWS V14.01,2013-02-19 03:10:00,
2013-02-18 19:16:00,47.8,31.5,29.84,SSE,157,4.0,9.6,53,0.00,,CLR,0.00,VWS V14.01,2013-02-19 03:16:00,
2013-02-18 19:21:00,48.0,32.6,29.84,SE,141,8.3,8.3,55,0.00,,CLR,0.00,VWS V14.01,2013-02-19 03:21:00,
2013-02-18 19:26:00,48.2,32.3,29.84,SE,134,6.7,7.8,54,0.00,,CLR,0.00,VWS V14.01,2013-02-19 03:26:00,
2013-02-18 19:31:00,48.4,32.5,29.84,ESE,121,5.4,9.2,54,0.00,,CLR,0.00,VWS V14.01,2013-02-19 03:31:00,
2013-02-18 19:36:00,48.0,32.2,29.84,SE,141,4.5,6.7,54,0.00,,CLR,0.00,VWS V14.01,2013-02-19 03:36:00,
2013-02-18 19:41:00,48.0,31.7,29.84,ESE,123,5.8,6.9,53,0.00,,CLR,0.00,VWS V14.01,2013-02-19 03:41:00,
2013-02-18 19:47:00,47.7,31.9,29.84,SSE,154,7.8,11.2,54,0.00,,CLR,0.00,VWS V14.01,2013-02-19 03:47:00,
2013-02-18 19:52:00,47.5,31.7,29.84,SE,134,7.8,10.1,54,0.00,,CLR,0.00,VWS V14.01,2013-02-19 03:52:00,
2013-02-18 19:57:00,47.3,31.5,29.84,SSW,193,6.7,7.4,54,0.00,,CLR,0.00,VWS V14.01,2013-02-19 03:57:00,
2013-02-18 20:03:00,47.5,32.6,29.84,SE,127,6.9,7.8,56,0.00,,CLR,0.00,VWS V14.01,2013-02-19 04:03:00,
2013-02-18 20:08:00,47.8,32.5,29.84,SE,146,6.7,7.4,55,0.00,,CLR,0.00,VWS V14.01,2013-02-19 04:08:00,
2013-02-18 20:14:00,47.7,31.9,29.84,SSE,147,4.5,7.4,54,0.00,,CLR,0.00,VWS V14.01,2013-02-19 04:14:00,
2013-02-18 20:19:00,47.5,31.7,29.84,SSE,166,5.8,5.8,54,0.00,,CLR,0.00,VWS V14.01,2013-02-19 04:19:00,
2013-02-18 20:24:00,47.3,31.5,29.84,SE,135,9.2,10.5,54,0.00,,CLR,0.00,VWS V14.01,2013-02-19 04:24:00,
2013-02-18 20:30:00,47.5,32.1,29.84,SSE,162,3.6,4.5,55,0.00,,CLR,0.00,VWS V14.01,2013-02-19 04:30:00,
2013-02-18 20:35:00,47.1,31.8,29.84,SSE,164,6.3,9.6,55,0.00,,CLR,0.00,VWS V14.01,2013-02-19 04:35:00,
2013-02-18 20:40:00,46.9,31.6,29.84,SSW,201,5.4,8.7,55,0.00,,CLR,0.00,VWS V14.01,2013-02-19 04:40:00,
2013-02-18 20:45:00,46.8,31.9,29.84,SSE,148,5.8,10.1,56,0.00,,CLR,0.00,VWS V14.01,2013-02-19 04:45:00,
2013-02-18 20:50:00,46.6,31.7,29.84,SSE,147,7.8,9.6,56,0.00,,CLR,0.00,VWS V14.01,2013-02-19 04:50:00,
2013-02-18 20:56:00,46.6,31.7,29.84,SSE,168,7.4,8.7,56,0.00,,CLR,0.00,VWS V14.01,2013-02-19 04:56:00,
2013-02-18 21:00:00,46.9,32.5,29.84,SSE,149,4.9,6.3,57,0.00,,OVC100,0.00,VWS V14.01,2013-02-19 05:00:00,
2013-02-18 21:01:00,46.9,32.5,29.84,SSE,148,4.5,5.4,57,0.00,,OVC100,0.00,VWS V14.01,2013-02-19 05:01:00,
2013-02-18 21:06:00,46.8,31.5,29.84,SSE,150,8.7,11.0,55,0.00,,OVC100,0.00,VWS V14.01,2013-02-19 05:06:00,
2013-02-18 21:08:00,46.9,32.1,29.84,SE,134,5.4,11.0,56,0.00,,OVC100,0.00,VWS V14.01,2013-02-19 05:08:00,
2013-02-18 21:09:00,46.9,32.1,29.84,South,172,7.4,11.0,56,0.00,,OVC100,0.00,VWS V14.01,2013-02-19 05:09:00,
2013-02-18 21:14:00,47.1,32.2,29.84,SSE,155,7.4,10.1,56,0.00,,OVC100,0.00,VWS V14.01,2013-02-19 05:14:00,
2013-02-18 21:20:00,46.9,32.1,29.87,SSW,199,11.2,11.2,56,0.00,,OVC100,0.00,VWS V14.01,2013-02-19 05:20:00,
2013-02-18 21:25:00,46.6,31.7,29.87,SE,134,5.8,10.5,56,0.00,,OVC100,0.00,VWS V14.01,2013-02-19 05:25:00,
2013-02-18 21:30:00,46.6,31.7,29.87,SE,130,7.4,11.0,56,0.00,,OVC100,0.00,VWS V14.01,2013-02-19 05:30:00,
2013-02-18 21:35:00,46.9,32.5,29.87,SE,131,5.8,11.2,57,0.00,,OVC100,0.00,VWS V14.01,2013-02-19 05:35:00,
2013-02-18 21:40:00,46.6,32.2,29.87,SSE,155,11.6,13.0,57,0.00,,OVC100,0.00,VWS V14.01,2013-02-19 05:40:00,
2013-02-18 21:45:00,46.6,32.6,29.87,ESE,115,11.0,11.0,58,0.00,,OVC100,0.00,VWS V14.01,2013-02-19 05:45:00,
2013-02-18 21:50:00,46.4,32.4,29.87,SSE,156,7.8,8.3,58,0.00,,OVC100,0.00,VWS V14.01,2013-02-19 05:50:00,
2013-02-18 21:55:00,46.4,32.0,29.87,SSE,151,6.3,8.7,57,0.00,,OVC100,0.00,VWS V14.01,2013-02-19 05:55:00,
2013-02-18 22:00:00,46.4,32.4,29.84,SE,146,7.4,8.3,58,0.00,,CLR,0.00,VWS V14.01,2013-02-19 06:00:00,
2013-02-18 22:05:00,46.0,31.7,29.84,SSE,152,6.9,10.1,57,0.00,,CLR,0.00,VWS V14.01,2013-02-19 06:05:00,
2013-02-18 22:10:00,46.2,32.3,29.84,ESE,114,8.7,10.1,58,0.00,,CLR,0.00,VWS V14.01,2013-02-19 06:10:00,
2013-02-18 22:15:00,46.0,32.5,29.84,SE,135,11.0,11.2,59,0.00,,CLR,0.00,VWS V14.01,2013-02-19 06:15:00,
2013-02-18 22:20:00,45.9,31.9,29.84,SSE,153,7.4,12.1,58,0.00,,CLR,0.00,VWS V14.01,2013-02-19 06:20:00,
2013-02-18 22:26:00,46.0,32.5,29.84,SE,134,9.2,10.5,59,0.00,,CLR,0.00,VWS V14.01,2013-02-19 06:26:00,
2013-02-18 22:31:00,45.9,32.4,29.87,SE,131,5.8,7.8,59,0.00,,CLR,0.00,VWS V14.01,2013-02-19 06:31:00,
2013-02-18 22:36:00,45.7,32.2,29.87,SSE,148,7.4,8.3,59,0.00,,CLR,0.00,VWS V14.01,2013-02-19 06:36:00,
2013-02-18 22:41:00,45.5,32.4,29.87,ESE,117,9.2,9.2,60,0.00,,CLR,0.00,VWS V14.01,2013-02-19 06:41:00,
2013-02-18 22:46:00,45.5,32.8,29.84,SE,145,8.3,8.3,61,0.00,,CLR,0.00,VWS V14.01,2013-02-19 06:46:00,
2013-02-18 22:51:00,45.3,33.1,29.84,SE,143,6.9,8.3,62,0.00,,CLR,0.00,VWS V14.01,2013-02-19 06:51:00,
2013-02-18 22:56:00,45.5,33.2,29.84,South,188,11.6,12.1,62,0.00,,CLR,0.00,VWS V14.01,2013-02-19 06:56:00,
2013-02-18 23:01:00,45.3,33.5,29.84,South,169,5.8,9.2,63,0.00,,BKN080,0.00,VWS V14.01,2013-02-19 07:01:00,
2013-02-18 23:06:00,45.3,33.5,29.84,SSW,205,7.4,8.7,63,0.00,,BKN080,0.00,VWS V14.01,2013-02-19 07:06:00,
2013-02-18 23:11:00,45.3,33.5,29.84,South,182,7.4,10.5,63,0.00,,BKN080,0.00,VWS V14.01,2013-02-19 07:11:00,
2013-02-18 23:16:00,45.3,33.9,29.84,SSE,152,7.4,11.6,64,0.00,,BKN080,0.00,VWS V14.01,2013-02-19 07:16:00,
2013-02-18 23:21:00,45.3,33.9,29.84,SSW,192,8.7,12.1,64,0.00,,BKN080,0.00,VWS V14.01,2013-02-19 07:21:00,
2013-02-18 23:26:00,45.3,33.9,29.84,SE,140,5.4,6.9,64,0.00,,BKN080,0.00,VWS V14.01,2013-02-19 07:26:00,
2013-02-18 23:32:00,45.3,33.9,29.84,SSE,161,8.7,11.0,64,0.00,,BKN080,0.00,VWS V14.01,2013-02-19 07:32:00,
2013-02-18 23:37:00,45.3,34.3,29.84,South,179,3.6,6.7,65,0.00,,BKN080,0.00,VWS V14.01,2013-02-19 07:37:00,
2013-02-18 23:42:00,45.3,34.3,29.84,SSW,197,5.4,5.8,65,0.00,,BKN080,0.00,VWS V14.01,2013-02-19 07:42:00,
2013-02-18 23:47:00,45.3,34.3,29.84,SE,140,7.4,7.4,65,0.00,,BKN080,0.00,VWS V14.01,2013-02-19 07:47:00,
2013-02-18 23:52:00,45.3,34.3,29.84,SSE,166,6.7,11.2,65,0.00,,BKN080,0.00,VWS V14.01,2013-02-19 07:52:00,
2013-02-18 23:57:00,45.1,34.1,29.84,South,180,6.9,9.2,65,0.00,,BKN080,0.00,VWS V14.01,2013-02-19 07:57:00,